sensor_id;sensor_type;location;lat;lon;timestamp;temperature;humidity
17918;DHT22;9084;50.956;3.106;2023-04-03T00:00:12;4.00;99.90
17918;DHT22;9084;50.956;3.106;2023-04-03T00:02:38;4.00;99.90
17918;DHT22;9084;50.956;3.106;2023-04-03T00:05:07;3.90;99.90
17918;DHT22;9084;50.956;3.106;2023-04-03T00:07:32;4.00;99.90
17918;DHT22;9084;50.956;3.106;2023-04-03T00:10:00;4.00;99.90
17918;DHT22;9084;50.956;3.106;2023-04-03T00:12:26;4.00;99.90
17918;DHT22;9084;50.956;3.106;2023-04-03T00:14:51;3.90;99.90
17918;DHT22;9084;50.956;3.106;2023-04-03T00:17:17;3.90;99.90
17918;DHT22;9084;50.956;3.106;2023-04-03T00:19:43;3.90;99.90
17918;DHT22;9084;50.956;3.106;2023-04-03T00:22:10;3.90;99.90
17918;DHT22;9084;50.956;3.106;2023-04-03T00:24:36;3.90;99.90
17918;DHT22;9084;50.956;3.106;2023-04-03T00:27:02;4.00;99.90
17918;DHT22;9084;50.956;3.106;2023-04-03T00:29:30;4.00;99.90
17918;DHT22;9084;50.956;3.106;2023-04-03T00:31:58;3.90;99.90
17918;DHT22;9084;50.956;3.106;2023-04-03T00:34:24;3.90;99.90
17918;DHT22;9084;50.956;3.106;2023-04-03T00:36:50;3.90;99.90
17918;DHT22;9084;50.956;3.106;2023-04-03T00:39:16;3.80;99.90
17918;DHT22;9084;50.956;3.106;2023-04-03T00:41:42;3.80;99.90
17918;DHT22;9084;50.956;3.106;2023-04-03T00:47:08;3.80;99.90
17918;DHT22;9084;50.956;3.106;2023-04-03T00:49:35;3.80;99.90
17918;DHT22;9084;50.956;3.106;2023-04-03T00:52:01;3.80;99.90
17918;DHT22;9084;50.956;3.106;2023-04-03T00:54:29;3.80;99.90
17918;DHT22;9084;50.956;3.106;2023-04-03T00:56:57;3.80;99.90
17918;DHT22;9084;50.956;3.106;2023-04-03T00:59:31;3.80;99.90
17918;DHT22;9084;50.956;3.106;2023-04-03T01:01:59;3.70;99.90
17918;DHT22;9084;50.956;3.106;2023-04-03T01:07:00;3.60;99.90
17918;DHT22;9084;50.956;3.106;2023-04-03T01:09:27;3.60;99.90
17918;DHT22;9084;50.956;3.106;2023-04-03T01:11:53;3.50;99.90
17918;DHT22;9084;50.956;3.106;2023-04-03T01:14:23;3.50;99.90
17918;DHT22;9084;50.956;3.106;2023-04-03T01:16:53;3.50;99.90
17918;DHT22;9084;50.956;3.106;2023-04-03T01:19:19;3.50;99.90
17918;DHT22;9084;50.956;3.106;2023-04-03T01:22:10;3.50;99.90
17918;DHT22;9084;50.956;3.106;2023-04-03T01:24:40;3.60;99.90
17918;DHT22;9084;50.956;3.106;2023-04-03T01:27:08;3.60;99.90
17918;DHT22;9084;50.956;3.106;2023-04-03T01:29:37;3.60;99.90
17918;DHT22;9084;50.956;3.106;2023-04-03T01:32:07;3.60;99.90
17918;DHT22;9084;50.956;3.106;2023-04-03T01:34:33;3.60;99.90
17918;DHT22;9084;50.956;3.106;2023-04-03T01:36:59;3.60;99.90
17918;DHT22;9084;50.956;3.106;2023-04-03T01:39:27;3.60;99.90
17918;DHT22;9084;50.956;3.106;2023-04-03T01:41:53;3.60;99.90
17918;DHT22;9084;50.956;3.106;2023-04-03T01:44:21;3.60;99.90
17918;DHT22;9084;50.956;3.106;2023-04-03T01:46:47;3.60;99.90
17918;DHT22;9084;50.956;3.106;2023-04-03T01:49:12;3.60;99.90
17918;DHT22;9084;50.956;3.106;2023-04-03T01:51:38;3.60;99.90
17918;DHT22;9084;50.956;3.106;2023-04-03T01:54:06;3.60;99.90
17918;DHT22;9084;50.956;3.106;2023-04-03T01:56:32;3.60;99.90
17918;DHT22;9084;50.956;3.106;2023-04-03T01:59:02;3.60;99.90
17918;DHT22;9084;50.956;3.106;2023-04-03T02:01:30;3.60;99.90
17918;DHT22;9084;50.956;3.106;2023-04-03T02:03:55;3.60;99.90
17918;DHT22;9084;50.956;3.106;2023-04-03T02:06:21;3.60;99.90
17918;DHT22;9084;50.956;3.106;2023-04-03T02:08:49;3.60;99.90
17918;DHT22;9084;50.956;3.106;2023-04-03T02:11:14;3.60;99.90
17918;DHT22;9084;50.956;3.106;2023-04-03T02:13:40;3.60;99.90
17918;DHT22;9084;50.956;3.106;2023-04-03T02:16:07;3.50;99.90
17918;DHT22;9084;50.956;3.106;2023-04-03T02:18:33;3.50;99.90
17918;DHT22;9084;50.956;3.106;2023-04-03T02:20:59;3.40;99.90
17918;DHT22;9084;50.956;3.106;2023-04-03T02:23:25;3.30;99.90
17918;DHT22;9084;50.956;3.106;2023-04-03T02:25:53;3.30;99.90
17918;DHT22;9084;50.956;3.106;2023-04-03T02:28:18;3.30;99.90
17918;DHT22;9084;50.956;3.106;2023-04-03T02:30:44;3.30;99.90
17918;DHT22;9084;50.956;3.106;2023-04-03T02:33:09;3.20;99.90
17918;DHT22;9084;50.956;3.106;2023-04-03T02:35:35;3.30;99.90
17918;DHT22;9084;50.956;3.106;2023-04-03T02:38:02;3.30;99.90
17918;DHT22;9084;50.956;3.106;2023-04-03T02:40:27;3.30;99.90
17918;DHT22;9084;50.956;3.106;2023-04-03T02:42:56;3.30;99.90
17918;DHT22;9084;50.956;3.106;2023-04-03T02:45:21;3.30;99.90
17918;DHT22;9084;50.956;3.106;2023-04-03T02:47:47;3.30;99.90
17918;DHT22;9084;50.956;3.106;2023-04-03T02:50:15;3.30;99.90
17918;DHT22;9084;50.956;3.106;2023-04-03T02:52:43;3.40;99.90
17918;DHT22;9084;50.956;3.106;2023-04-03T02:55:14;3.30;99.90
17918;DHT22;9084;50.956;3.106;2023-04-03T02:57:41;3.40;99.90
17918;DHT22;9084;50.956;3.106;2023-04-03T03:00:10;3.40;99.90
17918;DHT22;9084;50.956;3.106;2023-04-03T03:02:35;3.40;99.90
17918;DHT22;9084;50.956;3.106;2023-04-03T03:05:01;3.40;99.90
17918;DHT22;9084;50.956;3.106;2023-04-03T03:07:27;3.40;99.90
17918;DHT22;9084;50.956;3.106;2023-04-03T03:09:55;3.40;99.90
17918;DHT22;9084;50.956;3.106;2023-04-03T03:12:23;3.50;99.90
17918;DHT22;9084;50.956;3.106;2023-04-03T03:14:50;3.40;99.90
17918;DHT22;9084;50.956;3.106;2023-04-03T03:17:15;3.40;99.90
17918;DHT22;9084;50.956;3.106;2023-04-03T03:19:41;3.40;99.90
17918;DHT22;9084;50.956;3.106;2023-04-03T03:22:11;3.40;99.90
17918;DHT22;9084;50.956;3.106;2023-04-03T03:24:36;3.40;99.90
17918;DHT22;9084;50.956;3.106;2023-04-03T03:27:02;3.30;99.90
17918;DHT22;9084;50.956;3.106;2023-04-03T03:29:28;3.30;99.90
17918;DHT22;9084;50.956;3.106;2023-04-03T03:31:53;3.40;99.90
17918;DHT22;9084;50.956;3.106;2023-04-03T03:34:19;3.40;99.90
17918;DHT22;9084;50.956;3.106;2023-04-03T03:36:45;3.50;99.90
17918;DHT22;9084;50.956;3.106;2023-04-03T03:39:13;3.50;99.90
17918;DHT22;9084;50.956;3.106;2023-04-03T03:41:39;3.50;99.90
17918;DHT22;9084;50.956;3.106;2023-04-03T03:44:04;3.60;99.90
17918;DHT22;9084;50.956;3.106;2023-04-03T03:46:30;3.50;99.90
17918;DHT22;9084;50.956;3.106;2023-04-03T03:48:56;3.50;99.90
17918;DHT22;9084;50.956;3.106;2023-04-03T03:51:22;3.50;99.90
17918;DHT22;9084;50.956;3.106;2023-04-03T03:53:50;3.50;99.90
17918;DHT22;9084;50.956;3.106;2023-04-03T03:56:18;3.50;99.90
17918;DHT22;9084;50.956;3.106;2023-04-03T03:58:46;3.50;99.90
17918;DHT22;9084;50.956;3.106;2023-04-03T04:01:12;3.40;99.90
17918;DHT22;9084;50.956;3.106;2023-04-03T04:03:37;3.50;99.90
17918;DHT22;9084;50.956;3.106;2023-04-03T04:06:03;3.50;99.90
17918;DHT22;9084;50.956;3.106;2023-04-03T04:08:31;3.50;99.90
17918;DHT22;9084;50.956;3.106;2023-04-03T04:10:59;3.50;99.90
17918;DHT22;9084;50.956;3.106;2023-04-03T04:13:25;3.50;99.90
17918;DHT22;9084;50.956;3.106;2023-04-03T04:15:51;3.40;99.90
17918;DHT22;9084;50.956;3.106;2023-04-03T04:18:16;3.40;99.90
17918;DHT22;9084;50.956;3.106;2023-04-03T04:20:45;3.40;99.90
17918;DHT22;9084;50.956;3.106;2023-04-03T04:23:14;3.30;99.90
17918;DHT22;9084;50.956;3.106;2023-04-03T04:25:47;3.30;99.90
17918;DHT22;9084;50.956;3.106;2023-04-03T04:28:15;3.30;99.90
17918;DHT22;9084;50.956;3.106;2023-04-03T04:30:47;3.30;99.90
17918;DHT22;9084;50.956;3.106;2023-04-03T04:33:12;3.20;99.90
17918;DHT22;9084;50.956;3.106;2023-04-03T04:35:40;3.20;99.90
17918;DHT22;9084;50.956;3.106;2023-04-03T04:38:06;3.20;99.90
17918;DHT22;9084;50.956;3.106;2023-04-03T04:40:34;3.20;99.90
17918;DHT22;9084;50.956;3.106;2023-04-03T04:43:03;3.20;99.90
17918;DHT22;9084;50.956;3.106;2023-04-03T04:45:31;3.20;99.90
17918;DHT22;9084;50.956;3.106;2023-04-03T04:47:57;3.10;99.90
17918;DHT22;9084;50.956;3.106;2023-04-03T04:50:25;3.10;99.90
17918;DHT22;9084;50.956;3.106;2023-04-03T04:52:50;3.10;99.90
17918;DHT22;9084;50.956;3.106;2023-04-03T04:55:16;3.10;99.90
17918;DHT22;9084;50.956;3.106;2023-04-03T04:57:42;3.10;99.90
17918;DHT22;9084;50.956;3.106;2023-04-03T05:00:08;3.10;99.90
17918;DHT22;9084;50.956;3.106;2023-04-03T05:02:36;3.10;99.90
17918;DHT22;9084;50.956;3.106;2023-04-03T05:05:02;3.10;99.90
17918;DHT22;9084;50.956;3.106;2023-04-03T05:07:27;3.10;99.90
17918;DHT22;9084;50.956;3.106;2023-04-03T05:09:53;3.10;99.90
17918;DHT22;9084;50.956;3.106;2023-04-03T05:12:21;3.10;99.90
17918;DHT22;9084;50.956;3.106;2023-04-03T05:14:49;3.10;99.90
17918;DHT22;9084;50.956;3.106;2023-04-03T05:17:17;3.00;99.90
17918;DHT22;9084;50.956;3.106;2023-04-03T05:19:45;3.10;99.90
17918;DHT22;9084;50.956;3.106;2023-04-03T05:22:11;3.20;99.90
17918;DHT22;9084;50.956;3.106;2023-04-03T05:24:37;3.10;99.90
17918;DHT22;9084;50.956;3.106;2023-04-03T05:27:03;3.10;99.90
17918;DHT22;9084;50.956;3.106;2023-04-03T05:29:29;3.30;99.90
17918;DHT22;9084;50.956;3.106;2023-04-03T05:31:54;3.20;99.90
17918;DHT22;9084;50.956;3.106;2023-04-03T05:34:21;3.20;99.90
17918;DHT22;9084;50.956;3.106;2023-04-03T05:36:46;3.30;99.90
17918;DHT22;9084;50.956;3.106;2023-04-03T05:39:12;3.30;99.90
17918;DHT22;9084;50.956;3.106;2023-04-03T05:41:38;3.30;99.90
17918;DHT22;9084;50.956;3.106;2023-04-03T05:44:05;3.40;99.90
17918;DHT22;9084;50.956;3.106;2023-04-03T05:46:31;3.40;99.90
17918;DHT22;9084;50.956;3.106;2023-04-03T05:48:57;3.40;99.90
17918;DHT22;9084;50.956;3.106;2023-04-03T05:51:29;3.40;99.90
17918;DHT22;9084;50.956;3.106;2023-04-03T05:54:04;3.40;99.90
17918;DHT22;9084;50.956;3.106;2023-04-03T05:56:33;3.50;99.90
17918;DHT22;9084;50.956;3.106;2023-04-03T05:58:59;3.50;99.90
17918;DHT22;9084;50.956;3.106;2023-04-03T06:01:25;3.50;99.90
17918;DHT22;9084;50.956;3.106;2023-04-03T06:03:51;3.60;99.90
17918;DHT22;9084;50.956;3.106;2023-04-03T06:06:17;3.60;99.90
17918;DHT22;9084;50.956;3.106;2023-04-03T06:08:43;3.70;99.90
17918;DHT22;9084;50.956;3.106;2023-04-03T06:11:09;3.70;99.90
17918;DHT22;9084;50.956;3.106;2023-04-03T06:13:34;3.80;99.90
17918;DHT22;9084;50.956;3.106;2023-04-03T06:16:01;3.70;99.90
17918;DHT22;9084;50.956;3.106;2023-04-03T06:18:29;3.80;99.90
17918;DHT22;9084;50.956;3.106;2023-04-03T06:20:55;3.80;99.90
17918;DHT22;9084;50.956;3.106;2023-04-03T06:23:21;3.90;99.90
17918;DHT22;9084;50.956;3.106;2023-04-03T06:25:46;3.90;99.90
17918;DHT22;9084;50.956;3.106;2023-04-03T06:28:12;3.90;99.90
17918;DHT22;9084;50.956;3.106;2023-04-03T06:30:40;3.90;99.90
17918;DHT22;9084;50.956;3.106;2023-04-03T06:33:06;4.00;99.90
17918;DHT22;9084;50.956;3.106;2023-04-03T06:35:32;4.10;99.90
17918;DHT22;9084;50.956;3.106;2023-04-03T06:38:05;4.10;99.90
17918;DHT22;9084;50.956;3.106;2023-04-03T06:40:35;4.10;99.90
17918;DHT22;9084;50.956;3.106;2023-04-03T06:43:01;4.20;99.90
17918;DHT22;9084;50.956;3.106;2023-04-03T06:45:29;4.30;99.90
17918;DHT22;9084;50.956;3.106;2023-04-03T06:47:57;4.30;99.90
17918;DHT22;9084;50.956;3.106;2023-04-03T06:50:25;4.30;99.90
17918;DHT22;9084;50.956;3.106;2023-04-03T06:52:51;4.40;99.90
17918;DHT22;9084;50.956;3.106;2023-04-03T06:55:17;4.50;99.90
17918;DHT22;9084;50.956;3.106;2023-04-03T06:57:47;4.60;99.90
17918;DHT22;9084;50.956;3.106;2023-04-03T07:00:14;4.60;99.90
17918;DHT22;9084;50.956;3.106;2023-04-03T07:02:42;4.60;99.90
17918;DHT22;9084;50.956;3.106;2023-04-03T07:05:07;4.70;99.90
17918;DHT22;9084;50.956;3.106;2023-04-03T07:07:34;4.90;99.90
17918;DHT22;9084;50.956;3.106;2023-04-03T07:10:00;4.90;99.90
17918;DHT22;9084;50.956;3.106;2023-04-03T07:12:26;4.90;99.90
17918;DHT22;9084;50.956;3.106;2023-04-03T07:14:51;5.00;99.90
17918;DHT22;9084;50.956;3.106;2023-04-03T07:17:17;5.10;99.90
17918;DHT22;9084;50.956;3.106;2023-04-03T07:19:43;5.10;99.90
17918;DHT22;9084;50.956;3.106;2023-04-03T07:22:09;5.20;99.90
17918;DHT22;9084;50.956;3.106;2023-04-03T07:24:38;5.20;99.90
17918;DHT22;9084;50.956;3.106;2023-04-03T07:27:04;5.30;99.90
17918;DHT22;9084;50.956;3.106;2023-04-03T07:29:34;5.40;99.90
17918;DHT22;9084;50.956;3.106;2023-04-03T07:32:00;5.50;99.90
17918;DHT22;9084;50.956;3.106;2023-04-03T07:34:26;5.50;99.90
17918;DHT22;9084;50.956;3.106;2023-04-03T07:36:56;5.50;99.90
17918;DHT22;9084;50.956;3.106;2023-04-03T07:39:23;5.60;99.90
17918;DHT22;9084;50.956;3.106;2023-04-03T07:41:48;5.70;99.90
17918;DHT22;9084;50.956;3.106;2023-04-03T07:44:15;5.80;99.90
17918;DHT22;9084;50.956;3.106;2023-04-03T07:46:42;5.80;99.90
17918;DHT22;9084;50.956;3.106;2023-04-03T07:49:10;5.90;99.90
17918;DHT22;9084;50.956;3.106;2023-04-03T07:51:39;6.00;99.90
17918;DHT22;9084;50.956;3.106;2023-04-03T07:54:05;6.00;99.90
17918;DHT22;9084;50.956;3.106;2023-04-03T07:56:31;6.10;99.90
17918;DHT22;9084;50.956;3.106;2023-04-03T07:58:57;6.20;99.90
17918;DHT22;9084;50.956;3.106;2023-04-03T08:01:31;6.20;99.90
17918;DHT22;9084;50.956;3.106;2023-04-03T08:03:59;6.30;99.90
17918;DHT22;9084;50.956;3.106;2023-04-03T08:06:25;6.30;99.90
17918;DHT22;9084;50.956;3.106;2023-04-03T08:08:50;6.40;99.90
17918;DHT22;9084;50.956;3.106;2023-04-03T08:11:18;6.40;99.90
17918;DHT22;9084;50.956;3.106;2023-04-03T08:13:44;6.50;99.90
17918;DHT22;9084;50.956;3.106;2023-04-03T08:16:15;6.50;99.90
17918;DHT22;9084;50.956;3.106;2023-04-03T08:18:44;6.60;99.90
17918;DHT22;9084;50.956;3.106;2023-04-03T08:21:11;6.70;99.90
17918;DHT22;9084;50.956;3.106;2023-04-03T08:23:38;6.70;99.90
17918;DHT22;9084;50.956;3.106;2023-04-03T08:26:12;6.70;99.90
17918;DHT22;9084;50.956;3.106;2023-04-03T08:28:41;6.80;99.90
17918;DHT22;9084;50.956;3.106;2023-04-03T08:31:13;6.90;99.90
17918;DHT22;9084;50.956;3.106;2023-04-03T08:33:39;7.00;99.90
17918;DHT22;9084;50.956;3.106;2023-04-03T08:36:18;7.10;99.90
17918;DHT22;9084;50.956;3.106;2023-04-03T08:38:47;7.20;99.90
17918;DHT22;9084;50.956;3.106;2023-04-03T08:44:25;7.30;99.90
17918;DHT22;9084;50.956;3.106;2023-04-03T08:49:43;7.40;99.90
17918;DHT22;9084;50.956;3.106;2023-04-03T08:52:18;7.50;99.90
17918;DHT22;9084;50.956;3.106;2023-04-03T08:54:55;7.50;99.90
17918;DHT22;9084;50.956;3.106;2023-04-03T08:57:39;7.60;99.90
17918;DHT22;9084;50.956;3.106;2023-04-03T09:00:25;7.70;99.90
17918;DHT22;9084;50.956;3.106;2023-04-03T09:02:54;7.80;99.90
17918;DHT22;9084;50.956;3.106;2023-04-03T09:10:42;8.00;99.90
17918;DHT22;9084;50.956;3.106;2023-04-03T09:15:54;8.10;99.90
17918;DHT22;9084;50.956;3.106;2023-04-03T09:18:26;8.10;99.90
17918;DHT22;9084;50.956;3.106;2023-04-03T09:26:09;8.20;99.90
17918;DHT22;9084;50.956;3.106;2023-04-03T09:28:40;8.30;99.90
17918;DHT22;9084;50.956;3.106;2023-04-03T09:31:23;8.30;99.90
17918;DHT22;9084;50.956;3.106;2023-04-03T09:33:54;8.40;99.90
17918;DHT22;9084;50.956;3.106;2023-04-03T09:36:43;8.30;99.90
17918;DHT22;9084;50.956;3.106;2023-04-03T09:39:15;8.40;99.90
17918;DHT22;9084;50.956;3.106;2023-04-03T09:41:54;8.40;99.90
17918;DHT22;9084;50.956;3.106;2023-04-03T09:44:23;8.50;99.90
17918;DHT22;9084;50.956;3.106;2023-04-03T09:46:48;8.60;99.90
17918;DHT22;9084;50.956;3.106;2023-04-03T09:49:17;8.60;99.90
17918;DHT22;9084;50.956;3.106;2023-04-03T09:51:43;8.60;99.90
17918;DHT22;9084;50.956;3.106;2023-04-03T09:54:35;8.70;99.90
17918;DHT22;9084;50.956;3.106;2023-04-03T09:57:12;8.80;99.90
17918;DHT22;9084;50.956;3.106;2023-04-03T09:59:44;8.80;99.90
17918;DHT22;9084;50.956;3.106;2023-04-03T10:02:27;8.90;99.90
17918;DHT22;9084;50.956;3.106;2023-04-03T10:04:54;9.10;99.90
17918;DHT22;9084;50.956;3.106;2023-04-03T10:07:28;9.30;99.90
17918;DHT22;9084;50.956;3.106;2023-04-03T10:09:56;9.40;99.90
17918;DHT22;9084;50.956;3.106;2023-04-03T10:12:27;9.50;99.90
17918;DHT22;9084;50.956;3.106;2023-04-03T10:22:30;9.50;99.90
17918;DHT22;9084;50.956;3.106;2023-04-03T10:25:21;9.50;99.10
17918;DHT22;9084;50.956;3.106;2023-04-03T10:28:02;9.50;96.60
17918;DHT22;9084;50.956;3.106;2023-04-03T10:33:39;9.60;96.10
17918;DHT22;9084;50.956;3.106;2023-04-03T10:47:17;9.70;97.80
17918;DHT22;9084;50.956;3.106;2023-04-03T10:57:25;9.80;94.20
17918;DHT22;9084;50.956;3.106;2023-04-03T11:00:02;9.80;95.70
17918;DHT22;9084;50.956;3.106;2023-04-03T11:02:45;9.80;96.90
17918;DHT22;9084;50.956;3.106;2023-04-03T11:05:24;9.80;95.20
17918;DHT22;9084;50.956;3.106;2023-04-03T11:07:53;9.80;94.80
17918;DHT22;9084;50.956;3.106;2023-04-03T11:11:00;9.80;93.50
17918;DHT22;9084;50.956;3.106;2023-04-03T11:16:23;9.80;95.20
17918;DHT22;9084;50.956;3.106;2023-04-03T11:21:31;9.80;92.90
17918;DHT22;9084;50.956;3.106;2023-04-03T11:24:03;9.70;93.40
17918;DHT22;9084;50.956;3.106;2023-04-03T11:26:37;9.70;91.60
17918;DHT22;9084;50.956;3.106;2023-04-03T11:29:10;9.60;93.30
17918;DHT22;9084;50.956;3.106;2023-04-03T11:31:42;9.60;90.20
17918;DHT22;9084;50.956;3.106;2023-04-03T11:36:47;9.80;90.30
17918;DHT22;9084;50.956;3.106;2023-04-03T11:39:35;9.80;85.70
17918;DHT22;9084;50.956;3.106;2023-04-03T11:42:38;9.90;86.40
17918;DHT22;9084;50.956;3.106;2023-04-03T11:47:50;10.00;88.30
17918;DHT22;9084;50.956;3.106;2023-04-03T11:50:45;9.90;89.90
17918;DHT22;9084;50.956;3.106;2023-04-03T11:55:51;10.00;86.30
17918;DHT22;9084;50.956;3.106;2023-04-03T11:58:32;10.00;86.80
17918;DHT22;9084;50.956;3.106;2023-04-03T12:28:59;10.40;87.90
17918;DHT22;9084;50.956;3.106;2023-04-03T12:31:40;10.50;84.90
17918;DHT22;9084;50.956;3.106;2023-04-03T12:47:42;10.70;76.90
17918;DHT22;9084;50.956;3.106;2023-04-03T12:50:30;10.60;75.10
17918;DHT22;9084;50.956;3.106;2023-04-03T12:53:07;10.70;79.90
17918;DHT22;9084;50.956;3.106;2023-04-03T12:55:39;10.70;78.50
17918;DHT22;9084;50.956;3.106;2023-04-03T13:01:17;10.90;76.40
17918;DHT22;9084;50.956;3.106;2023-04-03T13:03:48;10.90;74.70
17918;DHT22;9084;50.956;3.106;2023-04-03T13:06:21;10.90;76.50
17918;DHT22;9084;50.956;3.106;2023-04-03T13:08:55;11.00;76.90
17918;DHT22;9084;50.956;3.106;2023-04-03T13:11:27;11.00;74.80
17918;DHT22;9084;50.956;3.106;2023-04-03T13:14:00;10.90;74.10
17918;DHT22;9084;50.956;3.106;2023-04-03T13:16:31;11.00;73.50
17918;DHT22;9084;50.956;3.106;2023-04-03T13:18:57;11.00;74.20
17918;DHT22;9084;50.956;3.106;2023-04-03T13:21:29;11.10;71.30
17918;DHT22;9084;50.956;3.106;2023-04-03T13:24:00;11.10;72.50
17918;DHT22;9084;50.956;3.106;2023-04-03T13:26:29;11.20;75.10
17918;DHT22;9084;50.956;3.106;2023-04-03T13:29:01;11.20;76.70
17918;DHT22;9084;50.956;3.106;2023-04-03T13:31:30;11.30;76.40
17918;DHT22;9084;50.956;3.106;2023-04-03T13:34:13;11.20;74.10
17918;DHT22;9084;50.956;3.106;2023-04-03T13:36:59;11.30;73.90
17918;DHT22;9084;50.956;3.106;2023-04-03T13:39:31;11.10;74.90
17918;DHT22;9084;50.956;3.106;2023-04-03T13:42:21;11.20;78.90
17918;DHT22;9084;50.956;3.106;2023-04-03T13:44:47;11.20;76.40
17918;DHT22;9084;50.956;3.106;2023-04-03T13:47:20;11.30;75.50
17918;DHT22;9084;50.956;3.106;2023-04-03T13:50:16;11.30;77.90
17918;DHT22;9084;50.956;3.106;2023-04-03T13:53:08;11.20;73.80
17918;DHT22;9084;50.956;3.106;2023-04-03T13:55:39;11.30;76.50
17918;DHT22;9084;50.956;3.106;2023-04-03T13:58:23;11.30;74.10
17918;DHT22;9084;50.956;3.106;2023-04-03T14:01:08;11.20;74.10
17918;DHT22;9084;50.956;3.106;2023-04-03T14:03:51;11.20;74.90
17918;DHT22;9084;50.956;3.106;2023-04-03T14:06:18;11.30;78.00
17918;DHT22;9084;50.956;3.106;2023-04-03T14:08:45;11.30;72.80
17918;DHT22;9084;50.956;3.106;2023-04-03T14:11:31;11.30;71.20
17918;DHT22;9084;50.956;3.106;2023-04-03T14:14:00;11.30;71.80
17918;DHT22;9084;50.956;3.106;2023-04-03T14:16:30;11.30;75.50
17918;DHT22;9084;50.956;3.106;2023-04-03T14:18:59;11.40;78.20
17918;DHT22;9084;50.956;3.106;2023-04-03T14:21:25;11.60;76.20
17918;DHT22;9084;50.956;3.106;2023-04-03T14:23:53;11.60;71.20
17918;DHT22;9084;50.956;3.106;2023-04-03T14:26:22;11.60;72.50
17918;DHT22;9084;50.956;3.106;2023-04-03T14:28:50;11.60;73.30
17918;DHT22;9084;50.956;3.106;2023-04-03T14:31:20;11.70;73.40
17918;DHT22;9084;50.956;3.106;2023-04-03T14:33:46;11.60;71.00
17918;DHT22;9084;50.956;3.106;2023-04-03T14:36:22;11.50;70.00
17918;DHT22;9084;50.956;3.106;2023-04-03T14:38:50;11.50;72.00
17918;DHT22;9084;50.956;3.106;2023-04-03T14:41:20;11.50;70.70
17918;DHT22;9084;50.956;3.106;2023-04-03T14:43:48;11.50;69.90
17918;DHT22;9084;50.956;3.106;2023-04-03T14:48:47;11.40;72.20
17918;DHT22;9084;50.956;3.106;2023-04-03T14:51:17;11.40;72.50
17918;DHT22;9084;50.956;3.106;2023-04-03T14:53:44;11.40;72.50
17918;DHT22;9084;50.956;3.106;2023-04-03T14:58:46;11.50;73.50
17918;DHT22;9084;50.956;3.106;2023-04-03T15:01:14;11.40;69.10
17918;DHT22;9084;50.956;3.106;2023-04-03T15:03:40;11.50;67.70
17918;DHT22;9084;50.956;3.106;2023-04-03T15:06:14;11.40;68.00
17918;DHT22;9084;50.956;3.106;2023-04-03T15:08:43;11.40;69.90
17918;DHT22;9084;50.956;3.106;2023-04-03T15:11:12;11.40;71.60
17918;DHT22;9084;50.956;3.106;2023-04-03T15:13:41;11.40;72.80
17918;DHT22;9084;50.956;3.106;2023-04-03T15:16:17;11.40;69.30
17918;DHT22;9084;50.956;3.106;2023-04-03T15:18:44;11.30;66.90
17918;DHT22;9084;50.956;3.106;2023-04-03T15:21:13;11.30;67.40
17918;DHT22;9084;50.956;3.106;2023-04-03T15:23:41;11.30;67.50
17918;DHT22;9084;50.956;3.106;2023-04-03T15:26:08;11.30;66.60
17918;DHT22;9084;50.956;3.106;2023-04-03T15:28:41;11.20;66.40
17918;DHT22;9084;50.956;3.106;2023-04-03T15:31:09;11.30;66.50
17918;DHT22;9084;50.956;3.106;2023-04-03T15:33:36;11.20;66.70
17918;DHT22;9084;50.956;3.106;2023-04-03T15:36:02;11.20;66.20
17918;DHT22;9084;50.956;3.106;2023-04-03T15:38:31;11.20;65.40
17918;DHT22;9084;50.956;3.106;2023-04-03T15:40:57;11.20;64.40
17918;DHT22;9084;50.956;3.106;2023-04-03T15:43:25;11.10;67.00
17918;DHT22;9084;50.956;3.106;2023-04-03T15:45:51;11.10;68.20
17918;DHT22;9084;50.956;3.106;2023-04-03T15:48:17;11.10;68.00
17918;DHT22;9084;50.956;3.106;2023-04-03T15:50:44;11.10;68.40
17918;DHT22;9084;50.956;3.106;2023-04-03T15:53:09;11.10;69.40
17918;DHT22;9084;50.956;3.106;2023-04-03T15:55:36;11.10;68.80
17918;DHT22;9084;50.956;3.106;2023-04-03T15:58:03;11.00;67.10
17918;DHT22;9084;50.956;3.106;2023-04-03T16:00:29;11.10;68.80
17918;DHT22;9084;50.956;3.106;2023-04-03T16:03:00;11.10;69.10
17918;DHT22;9084;50.956;3.106;2023-04-03T16:05:29;11.00;69.80
17918;DHT22;9084;50.956;3.106;2023-04-03T16:07:55;11.00;69.60
17918;DHT22;9084;50.956;3.106;2023-04-03T16:10:22;11.00;67.60
17918;DHT22;9084;50.956;3.106;2023-04-03T16:12:48;10.90;68.50
17918;DHT22;9084;50.956;3.106;2023-04-03T16:15:13;10.90;65.60
17918;DHT22;9084;50.956;3.106;2023-04-03T16:17:39;10.90;64.70
17918;DHT22;9084;50.956;3.106;2023-04-03T16:20:10;10.90;66.10
17918;DHT22;9084;50.956;3.106;2023-04-03T16:22:36;10.90;67.40
17918;DHT22;9084;50.956;3.106;2023-04-03T16:25:05;10.80;66.80
17918;DHT22;9084;50.956;3.106;2023-04-03T16:27:34;10.80;67.60
17918;DHT22;9084;50.956;3.106;2023-04-03T16:30:03;10.80;67.40
17918;DHT22;9084;50.956;3.106;2023-04-03T16:32:33;10.70;68.10
17918;DHT22;9084;50.956;3.106;2023-04-03T16:35:04;10.70;67.80
17918;DHT22;9084;50.956;3.106;2023-04-03T16:37:35;10.80;69.00
17918;DHT22;9084;50.956;3.106;2023-04-03T16:40:03;10.70;70.80
17918;DHT22;9084;50.956;3.106;2023-04-03T16:42:31;10.70;68.60
17918;DHT22;9084;50.956;3.106;2023-04-03T16:44:58;10.70;69.60
17918;DHT22;9084;50.956;3.106;2023-04-03T16:47:25;10.60;67.10
17918;DHT22;9084;50.956;3.106;2023-04-03T16:49:51;10.60;68.60
17918;DHT22;9084;50.956;3.106;2023-04-03T16:52:21;10.60;64.80
17918;DHT22;9084;50.956;3.106;2023-04-03T16:54:47;10.50;65.50
17918;DHT22;9084;50.956;3.106;2023-04-03T16:57:13;10.50;65.70
17918;DHT22;9084;50.956;3.106;2023-04-03T16:59:38;10.40;65.50
17918;DHT22;9084;50.956;3.106;2023-04-03T17:02:04;10.40;64.40
17918;DHT22;9084;50.956;3.106;2023-04-03T17:04:33;10.40;65.20
17918;DHT22;9084;50.956;3.106;2023-04-03T17:07:01;10.30;65.40
17918;DHT22;9084;50.956;3.106;2023-04-03T17:09:32;10.30;66.00
17918;DHT22;9084;50.956;3.106;2023-04-03T17:12:00;10.30;65.90
17918;DHT22;9084;50.956;3.106;2023-04-03T17:14:26;10.20;64.40
17918;DHT22;9084;50.956;3.106;2023-04-03T17:16:52;10.20;64.90
17918;DHT22;9084;50.956;3.106;2023-04-03T17:19:17;10.20;65.20
17918;DHT22;9084;50.956;3.106;2023-04-03T17:21:43;10.20;62.20
17918;DHT22;9084;50.956;3.106;2023-04-03T17:24:13;10.20;62.50
17918;DHT22;9084;50.956;3.106;2023-04-03T17:26:40;10.20;62.90
17918;DHT22;9084;50.956;3.106;2023-04-03T17:29:06;10.10;63.70
17918;DHT22;9084;50.956;3.106;2023-04-03T17:31:32;10.10;64.80
17918;DHT22;9084;50.956;3.106;2023-04-03T17:33:58;10.00;66.70
17918;DHT22;9084;50.956;3.106;2023-04-03T17:36:30;9.90;66.90
17918;DHT22;9084;50.956;3.106;2023-04-03T17:38:59;9.90;68.10
17918;DHT22;9084;50.956;3.106;2023-04-03T17:41:25;9.80;69.90
17918;DHT22;9084;50.956;3.106;2023-04-03T17:43:56;9.80;69.90
17918;DHT22;9084;50.956;3.106;2023-04-03T17:46:25;9.70;70.90
17918;DHT22;9084;50.956;3.106;2023-04-03T17:48:53;9.60;71.50
17918;DHT22;9084;50.956;3.106;2023-04-03T17:51:21;9.60;72.40
17918;DHT22;9084;50.956;3.106;2023-04-03T17:53:49;9.50;73.40
17918;DHT22;9084;50.956;3.106;2023-04-03T17:56:20;9.40;74.20
17918;DHT22;9084;50.956;3.106;2023-04-03T17:58:48;9.30;72.80
17918;DHT22;9084;50.956;3.106;2023-04-03T18:03:47;9.20;74.80
17918;DHT22;9084;50.956;3.106;2023-04-03T18:06:17;9.10;76.00
17918;DHT22;9084;50.956;3.106;2023-04-03T18:08:49;9.00;76.30